Time;durP1;ratioP1;P1;durP2;ratioP2;P2;SDS_P1;SDS_P2;PMS_P1;PMS_P2;Temp;Humidity;BMP_temperature;BMP_pressure;BME280_temperature;BME280_humidity;BME280_pressure;Samples;Min_cycle;Max_cycle;Signal;HPM_P1;HPM_P2
2021/03/22 00:01:14;;;;;;;30.40;4.93;;;2.90;86.50;;;;;;5038453;28;20637;-87
2021/03/22 00:03:47;;;;;;;35.50;5.03;;;2.80;86.50;;;;;;5056474;28;20180;-88
2021/03/22 00:06:17;;;;;;;31.93;5.43;;;2.80;86.70;;;;;;5056376;28;20667;-87
2021/03/22 00:08:51;;;;;;;22.23;5.13;;;2.80;86.60;;;;;;5056629;28;20223;-88
2021/03/22 00:11:24;;;;;;;33.70;5.73;;;2.80;86.50;;;;;;5056504;28;20205;-87
2021/03/22 00:14:00;;;;;;;35.73;6.13;;;2.80;86.40;;;;;;5056468;28;20179;-88
2021/03/22 00:16:34;;;;;;;29.20;6.83;;;2.70;86.00;;;;;;5056204;28;20262;-88
2021/03/22 00:19:06;;;;;;;20.83;4.73;;;2.70;86.10;;;;;;5056172;28;20265;-88
2021/03/22 00:21:32;;;;;;;23.73;6.23;;;2.60;86.30;;;;;;5038529;28;20627;-87
2021/03/22 00:24:00;;;;;;;28.30;5.10;;;2.70;86.20;;;;;;5038497;28;20231;-88
2021/03/22 00:26:34;;;;;;;35.17;6.53;;;2.60;86.30;;;;;;5037944;28;20741;-88
2021/03/22 00:29:04;;;;;;;40.90;6.13;;;2.60;86.40;;;;;;5038012;28;20182;-88
2021/03/22 00:31:30;;;;;;;25.70;5.47;;;2.60;86.50;;;;;;5038637;28;20183;-88
2021/03/22 00:34:01;;;;;;;28.30;6.60;;;2.60;86.40;;;;;;5055734;28;20644;-88
2021/03/22 00:36:31;;;;;;;26.73;6.00;;;2.60;86.40;;;;;;5037693;28;20217;-87
2021/03/22 00:39:04;;;;;;;28.40;4.97;;;2.60;86.10;;;;;;5055965;28;20161;-87
2021/03/22 00:41:35;;;;;;;26.17;5.73;;;2.60;86.20;;;;;;5037719;28;20173;-87
2021/03/22 00:44:08;;;;;;;31.37;7.40;;;2.50;86.10;;;;;;5055524;28;20178;-87
2021/03/22 00:46:36;;;;;;;39.07;6.67;;;2.50;86.00;;;;;;5037524;28;20209;-87
2021/03/22 00:49:04;;;;;;;33.10;5.33;;;2.50;85.80;;;;;;5055470;28;20183;-86
2021/03/22 00:51:34;;;;;;;26.60;5.47;;;2.50;85.50;;;;;;5037788;28;20224;-86
2021/03/22 00:54:02;;;;;;;29.47;5.67;;;2.50;85.50;;;;;;5055262;28;20267;-87
2021/03/22 00:56:31;;;;;;;32.70;5.97;;;2.40;85.40;;;;;;5037237;28;20240;-87
2021/03/22 00:59:04;;;;;;;37.23;6.40;;;2.40;85.80;;;;;;5055187;28;20301;-87
2021/03/22 01:01:37;;;;;;;33.20;5.50;;;2.30;86.30;;;;;;5037367;28;20203;-87
2021/03/22 01:04:11;;;;;;;36.97;5.80;;;2.30;86.50;;;;;;5055171;28;20169;-87
2021/03/22 01:06:42;;;;;;;34.73;6.20;;;2.30;86.70;;;;;;5037133;28;20217;-87
2021/03/22 01:09:14;;;;;;;25.50;5.23;;;2.30;86.50;;;;;;5037326;28;20259;-87
2021/03/22 01:11:44;;;;;;;34.40;6.47;;;2.30;86.30;;;;;;5037084;28;20264;-87
2021/03/22 01:14:14;;;;;;;32.50;6.37;;;2.20;86.20;;;;;;5037080;28;20202;-87
2021/03/22 01:16:47;;;;;;;36.67;5.90;;;2.20;86.90;;;;;;5054758;28;20286;-87
2021/03/22 01:19:23;;;;;;;35.83;6.07;;;2.20;87.00;;;;;;5036955;28;20204;-87
2021/03/22 01:21:58;;;;;;;24.13;5.80;;;2.20;86.70;;;;;;5055151;28;20614;-87
2021/03/22 01:24:32;;;;;;;25.33;5.97;;;2.10;86.60;;;;;;5036935;28;20167;-87
2021/03/22 01:27:05;;;;;;;29.03;5.07;;;2.10;86.50;;;;;;5036591;28;20218;-87
2021/03/22 01:29:39;;;;;;;30.37;6.20;;;2.20;86.60;;;;;;5036644;28;20181;-87
2021/03/22 01:32:11;;;;;;;31.83;5.73;;;2.10;86.60;;;;;;5054597;28;20214;-87
2021/03/22 01:34:42;;;;;;;26.40;5.43;;;2.10;86.70;;;;;;5036670;28;20715;-87
2021/03/22 01:37:16;;;;;;;40.50;6.20;;;2.10;87.00;;;;;;5054493;28;20568;-87
2021/03/22 01:39:47;;;;;;;33.67;5.43;;;2.10;87.30;;;;;;5036522;28;20173;-87
2021/03/22 01:42:31;;;;;;;37.67;5.83;;;2.10;87.60;;;;;;5036542;28;20601;-87
2021/03/22 01:45:13;;;;;;;32.73;5.30;;;2.20;87.40;;;;;;5036483;28;20174;-87
2021/03/22 01:47:45;;;;;;;26.40;5.13;;;2.10;87.40;;;;;;5036314;28;20194;-87
2021/03/22 01:50:29;;;;;;;39.47;6.50;;;2.00;87.20;;;;;;5036489;28;20176;-87
2021/03/22 01:53:04;;;;;;;39.50;5.97;;;2.00;87.10;;;;;;5054228;28;20175;-87
2021/03/22 01:55:30;;;;;;;30.60;5.80;;;1.90;86.90;;;;;;5035769;28;20681;-86
2021/03/22 01:58:01;;;;;;;35.80;5.70;;;1.90;86.80;;;;;;5054027;28;20244;-86
2021/03/22 02:00:33;;;;;;;34.80;5.13;;;1.90;86.90;;;;;;5036237;28;20314;-87
2021/03/22 02:03:16;;;;;;;35.47;6.03;;;1.90;87.40;;;;;;5054114;28;20210;-87
2021/03/22 02:05:51;;;;;;;34.53;6.20;;;1.80;87.60;;;;;;5036145;28;20223;-86
2021/03/22 02:08:27;;;;;;;28.47;6.10;;;1.80;88.00;;;;;;5036187;28;20171;-87
2021/03/22 02:10:58;;;;;;;42.13;6.30;;;1.80;88.10;;;;;;5054159;28;20526;-87
2021/03/22 02:13:30;;;;;;;40.93;6.43;;;1.90;88.10;;;;;;5035954;28;20179;-87
2021/03/22 02:16:13;;;;;;;31.17;6.17;;;1.80;88.10;;;;;;5036262;28;20209;-86
2021/03/22 02:19:09;;;;;;;26.53;6.10;;;1.90;88.40;;;;;;5053733;28;20227;-86
2021/03/22 02:22:15;;;;;;;31.90;5.13;;;1.90;88.30;;;;;;5054037;28;20158;-87
2021/03/22 02:25:21;;;;;;;30.87;6.27;;;1.90;88.20;;;;;;5036120;28;20174;-87
2021/03/22 02:28:20;;;;;;;36.87;5.33;;;1.90;88.10;;;;;;5035771;28;20222;-86
2021/03/22 02:31:24;;;;;;;29.13;6.10;;;1.90;88.10;;;;;;5036301;28;20225;-87
2021/03/22 02:34:27;;;;;;;30.23;5.93;;;1.90;88.30;;;;;;5053798;28;20172;-87
2021/03/22 02:37:22;;;;;;;21.83;5.33;;;1.90;88.30;;;;;;5053493;28;20221;-87
2021/03/22 02:39:57;;;;;;;36.13;7.00;;;1.90;88.30;;;;;;5035539;28;20530;-87
2021/03/22 02:42:34;;;;;;;29.17;6.63;;;1.90;88.50;;;;;;5035511;28;20261;-87
2021/03/22 02:45:07;;;;;;;32.17;5.87;;;1.90;88.50;;;;;;5053380;28;20174;-87
2021/03/22 02:47:36;;;;;;;32.00;6.67;;;1.80;88.50;;;;;;5053264;28;20188;-87
2021/03/22 02:50:18;;;;;;;41.77;6.60;;;1.80;88.60;;;;;;5035534;28;20174;-87
2021/03/22 02:53:18;;;;;;;34.17;6.13;;;1.80;88.50;;;;;;5035399;28;20176;-87
2021/03/22 02:56:00;;;;;;;33.83;5.97;;;1.80;88.70;;;;;;5053131;28;20696;-87
2021/03/22 02:58:41;;;;;;;32.73;5.70;;;1.80;88.90;;;;;;5053395;28;20609;-87
2021/03/22 03:01:17;;;;;;;32.93;6.07;;;1.80;88.70;;;;;;5035499;28;20207;-87
2021/03/22 03:03:50;;;;;;;30.13;5.83;;;1.80;88.90;;;;;;5035276;28;20195;-87
2021/03/22 03:06:22;;;;;;;34.87;6.63;;;1.80;88.90;;;;;;5053301;28;20564;-87
2021/03/22 03:08:54;;;;;;;38.90;6.67;;;1.90;89.20;;;;;;5059576;28;20189;-87
2021/03/22 03:11:27;;;;;;;38.50;6.53;;;2.00;89.50;;;;;;5041761;28;20551;-87
2021/03/22 03:14:01;;;;;;;29.30;5.03;;;2.00;89.50;;;;;;5041627;28;20180;-87
2021/03/22 03:16:34;;;;;;;31.53;5.97;;;2.00;89.60;;;;;;5041758;28;20710;-86
2021/03/22 03:19:04;;;;;;;38.63;6.87;;;2.00;89.80;;;;;;5041729;28;20221;-86
2021/03/22 03:21:34;;;;;;;41.23;6.23;;;2.20;90.30;;;;;;5042171;28;20255;-86
2021/03/22 03:24:07;;;;;;;31.33;6.10;;;2.20;90.20;;;;;;5041662;28;20683;-87
2021/03/22 03:26:39;;;;;;;33.47;7.57;;;2.30;90.60;;;;;;5041568;28;20303;-86
2021/03/22 03:29:11;;;;;;;39.87;7.37;;;2.40;90.90;;;;;;5059571;28;20179;-86
2021/03/22 03:31:44;;;;;;;32.43;5.87;;;2.50;91.20;;;;;;5042149;28;20179;-87
2021/03/22 03:34:14;;;;;;;37.63;7.00;;;2.60;91.20;;;;;;5059492;28;20170;-87
2021/03/22 03:36:47;;;;;;;37.77;6.23;;;2.70;91.30;;;;;;5059406;28;20210;-86
2021/03/22 03:39:13;;;;;;;37.77;6.57;;;2.70;91.20;;;;;;5041558;28;20178;-86
2021/03/22 03:41:45;;;;;;;33.93;6.80;;;2.70;91.40;;;;;;5042003;28;20205;-86
2021/03/22 03:44:19;;;;;;;27.97;6.03;;;2.80;91.40;;;;;;5041529;28;20180;-86
2021/03/22 03:46:53;;;;;;;31.67;6.30;;;2.80;91.30;;;;;;5041781;28;20194;-87
2021/03/22 03:49:23;;;;;;;37.53;6.53;;;2.70;91.30;;;;;;5059435;28;20179;-87
2021/03/22 03:52:01;;;;;;;32.83;6.97;;;2.80;91.30;;;;;;5041459;28;20654;-87
2021/03/22 03:54:33;;;;;;;36.97;6.63;;;2.80;91.30;;;;;;5059425;28;20175;-87
2021/03/22 03:57:03;;;;;;;43.43;7.23;;;2.80;91.20;;;;;;5059290;28;20555;-87
2021/03/22 03:59:33;;;;;;;40.07;6.83;;;2.80;91.30;;;;;;5059363;28;20204;-87
2021/03/22 04:02:03;;;;;;;30.57;7.00;;;2.80;91.30;;;;;;5041325;28;20174;-87
2021/03/22 04:04:34;;;;;;;35.13;7.30;;;2.80;91.40;;;;;;5041290;28;20178;-87
2021/03/22 04:07:05;;;;;;;25.83;6.87;;;2.80;91.20;;;;;;5041424;28;20573;-87
2021/03/22 04:09:38;;;;;;;36.53;7.67;;;2.80;91.20;;;;;;5059274;28;20178;-86
2021/03/22 04:12:06;;;;;;;32.43;6.93;;;2.80;91.30;;;;;;5041231;28;20655;-86
2021/03/22 04:14:33;;;;;;;34.53;7.70;;;2.80;91.20;;;;;;5041060;28;20175;-87
2021/03/22 04:17:04;;;;;;;43.30;7.63;;;2.80;91.30;;;;;;5041270;28;20194;-86
2021/03/22 04:19:36;;;;;;;41.67;7.20;;;2.90;91.30;;;;;;5038943;28;20234;-87
2021/03/22 04:22:03;;;;;;;40.13;7.87;;;2.90;91.40;;;;;;5056195;28;20572;-86
2021/03/22 04:24:34;;;;;;;29.80;6.60;;;3.00;91.30;;;;;;5038182;28;20173;-87
2021/03/22 04:27:07;;;;;;;37.60;7.77;;;2.90;91.20;;;;;;5055969;28;20211;-87
2021/03/22 04:29:38;;;;;;;35.33;7.40;;;3.00;91.30;;;;;;5055843;28;20171;-86
2021/03/22 04:32:06;;;;;;;43.40;7.33;;;3.00;91.40;;;;;;5037904;28;20181;-86
2021/03/22 04:34:35;;;;;;;38.30;7.90;;;3.00;91.20;;;;;;5037819;28;20177;-87
2021/03/22 04:37:10;;;;;;;29.23;6.50;;;3.10;91.30;;;;;;5037730;28;20227;-86
2021/03/22 04:39:37;;;;;;;36.30;6.93;;;3.10;91.20;;;;;;5037815;28;20173;-87
2021/03/22 04:42:04;;;;;;;41.07;7.20;;;3.10;91.10;;;;;;5055652;28;20175;-87
2021/03/22 04:44:31;;;;;;;30.53;7.37;;;3.20;91.20;;;;;;5037497;28;20168;-87
2021/03/22 04:47:04;;;;;;;38.57;7.47;;;3.30;91.20;;;;;;5055667;28;20186;-86
2021/03/22 04:49:31;;;;;;;36.00;7.00;;;3.20;91.00;;;;;;5037560;28;20178;-87
2021/03/22 04:52:02;;;;;;;27.77;7.00;;;3.20;90.90;;;;;;5055461;28;20222;-87
2021/03/22 04:54:28;;;;;;;37.03;7.20;;;3.20;90.90;;;;;;5037394;28;20552;-87
2021/03/22 04:57:10;;;;;;;41.43;6.90;;;3.30;90.60;;;;;;5037429;28;20192;-86
2021/03/22 04:59:40;;;;;;;35.63;6.93;;;3.30;90.40;;;;;;5037452;28;20165;-87
2021/03/22 05:02:13;;;;;;;21.90;6.57;;;3.30;90.30;;;;;;5037640;28;20649;-87
2021/03/22 05:04:44;;;;;;;22.73;6.77;;;3.30;90.20;;;;;;5055208;28;20180;-86
2021/03/22 05:07:21;;;;;;;27.83;7.13;;;3.30;90.00;;;;;;5037198;28;20279;-87
2021/03/22 05:09:53;;;;;;;26.27;6.27;;;3.30;90.10;;;;;;5037512;28;20166;-87
2021/03/22 05:12:24;;;;;;;31.70;6.87;;;3.30;89.90;;;;;;5037079;28;20657;-87
2021/03/22 05:14:55;;;;;;;43.40;7.80;;;3.30;89.90;;;;;;5036927;28;20210;-86
2021/03/22 05:17:27;;;;;;;22.50;6.20;;;3.30;89.90;;;;;;5054880;28;20218;-87
2021/03/22 05:19:53;;;;;;;40.93;7.30;;;3.30;89.80;;;;;;5055016;28;20526;-87
2021/03/22 05:22:22;;;;;;;38.07;7.83;;;3.30;89.50;;;;;;5037127;28;20174;-86
2021/03/22 05:24:52;;;;;;;26.50;6.77;;;3.30;89.60;;;;;;5054991;28;20678;-86
2021/03/22 05:27:24;;;;;;;30.27;6.53;;;3.30;89.50;;;;;;5148690;23;20237;-84
2021/03/22 05:29:57;;;;;;;28.43;7.13;;;3.30;89.50;;;;;;5074218;28;20186;-84
2021/03/22 05:32:34;;;;;;;32.00;7.00;;;3.30;89.60;;;;;;5074103;28;20168;-84
2021/03/22 05:35:10;;;;;;;26.03;6.53;;;3.30;89.60;;;;;;5056416;28;20675;-84
2021/03/22 05:37:41;;;;;;;26.20;7.23;;;3.40;89.50;;;;;;5056252;28;20190;-84
2021/03/22 05:40:20;;;;;;;30.73;7.07;;;3.40;89.50;;;;;;5056448;28;20288;-85
2021/03/22 05:42:55;;;;;;;36.20;7.90;;;3.40;89.50;;;;;;5056424;28;20174;-85
2021/03/22 05:46:04;;;;;;;30.27;7.10;;;3.50;89.50;;;;;;5056517;28;20176;-85
2021/03/22 05:48:55;;;;;;;31.23;8.23;;;3.40;89.40;;;;;;5056446;28;20178;-85
2021/03/22 05:52:01;;;;;;;28.77;7.23;;;3.50;89.50;;;;;;5056326;28;20180;-85
2021/03/22 05:54:44;;;;;;;29.17;8.23;;;3.50;89.60;;;;;;5056350;28;20236;-84
2021/03/22 05:57:28;;;;;;;28.00;8.53;;;3.50;89.60;;;;;;5074187;28;20200;-85
2021/03/22 06:00:12;;;;;;;30.73;7.73;;;3.60;89.50;;;;;;5074159;28;20655;-85
2021/03/22 06:02:54;;;;;;;23.37;7.23;;;3.60;89.70;;;;;;5058042;28;20161;-86
2021/03/22 06:05:40;;;;;;;31.07;9.13;;;3.60;89.90;;;;;;5057156;28;20175;-86
2021/03/22 06:08:34;;;;;;;32.40;9.30;;;3.60;90.00;;;;;;5056410;28;20220;-85
2021/03/22 06:11:20;;;;;;;31.33;7.90;;;3.70;90.00;;;;;;5055824;28;20261;-85
2021/03/22 06:13:49;;;;;;;26.43;7.87;;;3.60;89.80;;;;;;5055827;28;20171;-84
2021/03/22 06:16:38;;;;;;;30.80;8.60;;;3.70;89.90;;;;;;5074099;28;20198;-85
2021/03/22 06:19:10;;;;;;;34.27;9.87;;;3.60;90.00;;;;;;5055831;28;20276;-85
2021/03/22 06:21:41;;;;;;;32.60;8.90;;;3.70;89.80;;;;;;5055758;28;20206;-84
2021/03/22 06:24:24;;;;;;;29.00;8.03;;;3.70;89.90;;;;;;5055709;28;20170;-85
2021/03/22 06:27:00;;;;;;;31.07;7.93;;;3.80;89.90;;;;;;5055422;28;20214;-84
2021/03/22 06:29:38;;;;;;;27.10;8.10;;;3.80;89.80;;;;;;5073549;28;20194;-84
2021/03/22 06:32:08;;;;;;;19.67;7.23;;;3.80;89.70;;;;;;5055602;28;20263;-84
2021/03/22 06:34:51;;;;;;;32.00;9.23;;;3.80;89.80;;;;;;5055469;28;20191;-85
2021/03/22 06:37:25;;;;;;;29.23;7.77;;;3.80;89.80;;;;;;5073577;28;20266;-84
2021/03/22 06:40:12;;;;;;;21.97;7.47;;;3.90;89.80;;;;;;5077333;28;20219;-85
2021/03/22 06:42:41;;;;;;;31.13;8.23;;;3.90;89.90;;;;;;5077449;28;20693;-85
2021/03/22 06:45:30;;;;;;;25.37;7.63;;;3.90;89.90;;;;;;5076963;28;20192;-85
2021/03/22 06:48:21;;;;;;;33.53;7.87;;;3.90;89.40;;;;;;5075871;28;20194;-85
2021/03/22 06:51:05;;;;;;;25.43;8.00;;;3.90;89.30;;;;;;5075738;28;20537;-84
2021/03/22 06:53:50;;;;;;;29.20;8.33;;;3.90;89.20;;;;;;5055616;28;20188;-85
2021/03/22 06:56:37;;;;;;;29.87;7.83;;;3.90;89.20;;;;;;5073384;28;20245;-85
2021/03/22 06:59:17;;;;;;;27.80;8.43;;;4.00;89.30;;;;;;5073794;28;20666;-86
2021/03/22 07:01:54;;;;;;;22.00;7.90;;;4.00;89.40;;;;;;5055431;28;20684;-85
2021/03/22 07:04:39;;;;;;;28.77;8.60;;;4.10;89.30;;;;;;5055530;28;20186;-84
2021/03/22 07:07:07;;;;;;;25.07;8.27;;;4.20;89.40;;;;;;5055147;28;20226;-85
2021/03/22 07:09:36;;;;;;;25.13;7.87;;;4.20;89.60;;;;;;5073102;28;20229;-84
2021/03/22 07:12:05;;;;;;;29.20;8.00;;;4.20;89.50;;;;;;5073568;28;20580;-85
2021/03/22 07:14:38;;;;;;;24.67;9.33;;;4.30;89.00;;;;;;5055128;28;20202;-84
2021/03/22 07:17:19;;;;;;;20.93;6.80;;;4.30;88.70;;;;;;5054963;28;20205;-85
2021/03/22 07:20:08;;;;;;;28.80;7.37;;;4.20;88.70;;;;;;5055072;28;20178;-84
2021/03/22 07:22:39;;;;;;;26.83;7.60;;;4.30;88.80;;;;;;5055122;28;20174;-85
2021/03/22 07:25:27;;;;;;;28.97;7.67;;;4.30;89.00;;;;;;5055116;28;20177;-85
2021/03/22 07:28:14;;;;;;;26.23;7.93;;;4.40;88.70;;;;;;5072964;28;20205;-85
2021/03/22 07:30:53;;;;;;;24.00;7.77;;;4.40;88.30;;;;;;5054912;28;20179;-85
2021/03/22 07:33:42;;;;;;;22.83;7.20;;;4.40;88.40;;;;;;5072960;28;20194;-85
2021/03/22 07:36:43;;;;;;;22.40;7.57;;;4.50;88.60;;;;;;5073101;28;20231;-84
2021/03/22 07:39:23;;;;;;;29.70;7.80;;;4.60;88.30;;;;;;5054938;28;20168;-85
2021/03/22 07:42:06;;;;;;;28.60;7.10;;;4.60;88.30;;;;;;5055650;28;20195;-85
2021/03/22 07:45:13;;;;;;;32.57;8.30;;;4.70;88.40;;;;;;5054847;28;20168;-85
2021/03/22 07:48:04;;;;;;;24.90;7.77;;;4.70;88.20;;;;;;5054730;28;20199;-84
2021/03/22 07:50:51;;;;;;;27.27;7.87;;;4.70;88.30;;;;;;5054904;28;20194;-85
2021/03/22 07:53:40;;;;;;;22.87;8.33;;;4.80;88.20;;;;;;5054897;28;20666;-85
2021/03/22 07:56:23;;;;;;;27.47;7.37;;;4.80;88.20;;;;;;5076448;28;20199;-85
2021/03/22 07:59:22;;;;;;;22.00;7.30;;;4.90;88.40;;;;;;5076399;28;20708;-85
2021/03/22 08:02:12;;;;;;;24.03;8.13;;;5.00;88.00;;;;;;5058521;28;20217;-85
2021/03/22 08:04:55;;;;;;;25.97;7.57;;;5.10;88.00;;;;;;5058504;28;20583;-85
2021/03/22 08:07:27;;;;;;;26.30;6.57;;;5.10;87.80;;;;;;5058355;28;20197;-84
2021/03/22 08:10:28;;;;;;;23.37;6.97;;;5.10;87.50;;;;;;5058248;28;20178;-85
2021/03/22 08:13:14;;;;;;;25.90;6.77;;;5.10;87.40;;;;;;5058128;28;20655;-85
2021/03/22 08:16:01;;;;;;;22.70;6.93;;;5.30;87.40;;;;;;5058933;28;20285;-85
2021/03/22 08:18:54;;;;;;;20.27;6.83;;;5.30;87.30;;;;;;5058697;28;20167;-85
2021/03/22 08:21:36;;;;;;;23.43;8.03;;;5.30;86.80;;;;;;5058106;28;20639;-85
2021/03/22 08:24:10;;;;;;;17.73;6.97;;;5.40;86.30;;;;;;5058335;28;20228;-85
2021/03/22 08:26:59;;;;;;;34.83;17.97;;;5.40;86.20;;;;;;5075957;28;20620;-85
2021/03/22 08:29:33;;;;;;;34.03;7.67;;;5.70;86.80;;;;;;5075429;28;20213;-85
2021/03/22 08:32:41;;;;;;;22.20;6.50;;;5.80;85.80;;;;;;5057853;28;20183;-85
2021/03/22 08:35:33;;;;;;;20.43;6.03;;;6.00;85.80;;;;;;5057937;28;20199;-86
2021/03/22 08:38:14;;;;;;;12.77;5.33;;;6.10;84.70;;;;;;5075737;28;20200;-85
2021/03/22 08:40:56;;;;;;;20.27;5.47;;;6.30;84.00;;;;;;5075877;28;20182;-85
2021/03/22 08:43:59;;;;;;;15.47;5.00;;;6.30;83.60;;;;;;5075629;28;20205;-84
2021/03/22 08:46:50;;;;;;;24.07;5.70;;;6.30;82.90;;;;;;5057782;28;20607;-85
2021/03/22 08:49:45;;;;;;;15.40;4.80;;;6.40;83.00;;;;;;5057826;28;20177;-85
2021/03/22 08:52:50;;;;;;;11.73;4.77;;;6.50;83.10;;;;;;5057823;28;20204;-85
2021/03/22 08:55:40;;;;;;;21.20;6.00;;;6.50;82.00;;;;;;5058294;28;20191;-85
2021/03/22 08:58:27;;;;;;;16.57;4.90;;;6.40;81.40;;;;;;5075454;28;20260;-85
2021/03/22 09:00:56;;;;;;;16.67;5.17;;;6.40;81.20;;;;;;5075435;28;20629;-85
2021/03/22 09:03:34;;;;;;;18.77;5.00;;;6.40;81.10;;;;;;5057246;28;20237;-85
2021/03/22 09:06:17;;;;;;;9.63;4.50;;;6.50;80.60;;;;;;5056839;28;20188;-86
2021/03/22 09:08:55;;;;;;;19.13;5.23;;;6.70;79.90;;;;;;5075578;28;20241;-86
2021/03/22 09:11:32;;;;;;;16.03;4.00;;;6.90;81.10;;;;;;5075331;28;20196;-86
2021/03/22 09:14:03;;;;;;;14.00;4.63;;;6.90;78.00;;;;;;5057175;28;20181;-86
2021/03/22 09:16:48;;;;;;;12.57;4.63;;;7.00;77.50;;;;;;5056896;28;20579;-86
2021/03/22 09:19:21;;;;;;;15.40;4.03;;;7.00;77.00;;;;;;5075089;28;20226;-86
2021/03/22 09:21:59;;;;;;;14.43;5.03;;;7.30;78.10;;;;;;5057116;28;20197;-86
2021/03/22 09:24:47;;;;;;;14.63;4.77;;;7.50;76.40;;;;;;5075162;28;20175;-86
2021/03/22 09:27:24;;;;;;;14.17;4.60;;;7.50;75.00;;;;;;5056758;28;20693;-86
2021/03/22 09:30:04;;;;;;;11.37;4.23;;;7.80;76.20;;;;;;5074911;28;20177;-86
2021/03/22 09:32:38;;;;;;;8.33;4.00;;;8.00;77.00;;;;;;5056884;28;20164;-85
2021/03/22 09:35:16;;;;;;;10.70;4.50;;;8.10;74.40;;;;;;5056574;28;20275;-86
2021/03/22 09:38:29;;;;;;;6.77;3.93;;;8.20;75.00;;;;;;5056510;28;20198;-85
2021/03/22 09:41:03;;;;;;;10.80;4.03;;;7.90;72.80;;;;;;5012900;28;20185;-86
2021/03/22 09:43:34;;;;;;;9.63;3.57;;;8.10;73.80;;;;;;5049404;28;20556;-86
2021/03/22 09:46:14;;;;;;;11.20;3.90;;;8.00;74.10;;;;;;5074454;28;20230;-86
2021/03/22 09:48:43;;;;;;;7.10;3.40;;;8.00;73.40;;;;;;5056459;28;20278;-86
2021/03/22 09:51:09;;;;;;;11.60;4.10;;;8.00;72.90;;;;;;5056402;28;20602;-86
2021/03/22 09:53:54;;;;;;;9.03;4.07;;;8.10;72.50;;;;;;5074511;28;20199;-86
2021/03/22 09:56:28;;;;;;;8.77;3.60;;;8.30;72.80;;;;;;5074053;28;20281;-86
2021/03/22 09:59:29;;;;;;;9.70;3.13;;;8.70;73.00;;;;;;5056284;28;20176;-86
2021/03/22 10:01:59;;;;;;;12.53;3.40;;;8.40;68.80;;;;;;5032280;28;20232;-85
2021/03/22 10:04:35;;;;;;;8.67;3.07;;;8.40;70.80;;;;;;5074212;28;20655;-86
2021/03/22 10:07:06;;;;;;;11.13;3.80;;;8.30;70.70;;;;;;5074021;28;20195;-85
2021/03/22 10:09:37;;;;;;;8.07;3.93;;;8.30;70.80;;;;;;5056075;28;20217;-86
2021/03/22 10:12:36;;;;;;;15.80;5.00;;;8.60;72.90;;;;;;5056382;28;20210;-86
2021/03/22 10:15:15;;;;;;;7.83;4.13;;;8.90;74.10;;;;;;5054268;28;20211;-85
2021/03/22 10:17:48;;;;;;;10.80;5.03;;;9.10;71.80;;;;;;5073144;28;20187;-86
2021/03/22 10:20:37;;;;;;;15.50;4.50;;;8.80;72.00;;;;;;5056102;28;20174;-86
2021/03/22 10:23:34;;;;;;;8.07;3.80;;;9.10;72.20;;;;;;5055768;28;20171;-86
2021/03/22 10:26:22;;;;;;;14.77;4.53;;;9.10;71.60;;;;;;5073586;28;20550;-86
2021/03/22 10:29:08;;;;;;;16.43;4.53;;;9.30;70.70;;;;;;5055732;28;20191;-86
2021/03/22 10:31:40;;;;;;;13.70;3.40;;;9.30;72.20;;;;;;5055635;28;20553;-86
2021/03/22 10:34:24;;;;;;;9.17;4.30;;;9.50;68.30;;;;;;5073477;28;20217;-86
2021/03/22 10:36:54;;;;;;;8.77;3.37;;;8.80;69.90;;;;;;5055705;28;20247;-86
2021/03/22 10:39:33;;;;;;;12.40;4.50;;;8.70;71.10;;;;;;5055482;28;20171;-86
2021/03/22 10:42:20;;;;;;;4.60;3.63;;;9.30;71.80;;;;;;5073783;28;20171;-85
2021/03/22 10:44:55;;;;;;;10.93;4.63;;;8.90;68.60;;;;;;5073373;28;20548;-86
2021/03/22 10:47:28;;;;;;;13.90;5.07;;;8.90;70.90;;;;;;5073632;28;20260;-86
2021/03/22 10:50:23;;;;;;;11.30;4.63;;;9.40;69.80;;;;;;5073343;28;20546;-86
2021/03/22 10:53:08;;;;;;;10.27;4.87;;;9.40;68.80;;;;;;5073503;28;20203;-86
2021/03/22 10:55:39;;;;;;;11.43;4.60;;;9.10;70.90;;;;;;5073682;28;20562;-86
2021/03/22 10:58:32;;;;;;;11.90;5.20;;;9.30;68.70;;;;;;5073266;28;20194;-86
2021/03/22 11:01:04;;;;;;;8.67;4.73;;;9.40;68.10;;;;;;5055582;28;20175;-86
2021/03/22 11:03:36;;;;;;;10.50;4.30;;;9.40;68.30;;;;;;5055427;28;20266;-86
2021/03/22 11:06:26;;;;;;;12.90;4.03;;;8.90;67.50;;;;;;5073782;28;20175;-85
2021/03/22 11:09:00;;;;;;;7.80;3.60;;;9.00;69.30;;;;;;5055421;28;20612;-86
2021/03/22 11:11:30;;;;;;;12.93;3.70;;;9.10;69.90;;;;;;5073252;28;20176;-85
2021/03/22 11:14:05;;;;;;;17.67;5.10;;;8.90;67.50;;;;;;5055155;28;20665;-86
2021/03/22 11:16:41;;;;;;;8.13;4.17;;;9.00;68.30;;;;;;5054949;28;20701;-86
2021/03/22 11:19:25;;;;;;;14.13;5.03;;;9.30;68.90;;;;;;5055108;28;20171;-86
2021/03/22 11:21:55;;;;;;;7.27;3.40;;;9.40;67.60;;;;;;5055096;28;20169;-86
2021/03/22 11:24:39;;;;;;;11.67;4.43;;;9.30;68.70;;;;;;5073005;28;20167;-86
2021/03/22 11:27:10;;;;;;;13.70;4.57;;;8.80;69.70;;;;;;5054874;28;20214;-86
2021/03/22 11:29:50;;;;;;;10.17;4.97;;;9.10;69.10;;;;;;5076339;28;20171;-86
2021/03/22 11:32:21;;;;;;;12.37;4.77;;;8.90;68.60;;;;;;5059010;28;20617;-86
2021/03/22 11:34:48;;;;;;;9.70;5.60;;;8.90;69.30;;;;;;5076877;28;20163;-86
2021/03/22 11:37:23;;;;;;;11.83;4.67;;;8.80;69.30;;;;;;5058848;28;20562;-86
2021/03/22 11:40:02;;;;;;;9.50;4.50;;;8.80;68.60;;;;;;5059027;28;20166;-86
2021/03/22 11:42:34;;;;;;;16.70;4.97;;;8.90;69.00;;;;;;5058827;28;20178;-87
2021/03/22 11:45:21;;;;;;;8.70;3.80;;;9.10;68.50;;;;;;5058742;28;20172;-86
2021/03/22 11:47:50;;;;;;;9.30;4.67;;;9.00;68.00;;;;;;5076366;28;20195;-86
2021/03/22 11:50:38;;;;;;;8.63;3.67;;;8.90;69.00;;;;;;5076623;28;20218;-86
2021/03/22 11:53:19;;;;;;;11.87;3.73;;;8.80;70.40;;;;;;5058511;28;20178;-86
2021/03/22 11:55:54;;;;;;;12.70;3.17;;;9.00;69.10;;;;;;5058664;28;20579;-85
2021/03/22 11:58:43;;;;;;;12.27;3.80;;;8.90;69.60;;;;;;5076752;22;20538;-82
2021/03/22 12:01:22;;;;;;;7.27;3.67;;;9.20;70.10;;;;;;5039371;28;20180;-81
2021/03/22 12:03:54;;;;;;;7.90;2.97;;;9.40;69.20;;;;;;5039193;28;20709;-81
2021/03/22 12:06:21;;;;;;;15.43;3.80;;;9.70;69.70;;;;;;5057256;28;20176;-81
2021/03/22 12:08:49;;;;;;;8.43;3.87;;;9.80;67.60;;;;;;5039887;28;20197;-81
2021/03/22 12:11:17;;;;;;;8.70;3.00;;;10.30;67.00;;;;;;5057239;28;20186;-81
2021/03/22 12:13:49;;;;;;;9.57;2.90;;;10.50;66.10;;;;;;5057072;28;20184;-80
2021/03/22 12:16:32;;;;;;;9.50;3.53;;;9.60;67.70;;;;;;5056729;28;20204;-80
2021/03/22 12:19:06;;;;;;;9.60;2.97;;;9.90;67.70;;;;;;5056826;28;20203;-80
2021/03/22 12:21:35;;;;;;;7.23;2.50;;;9.70;68.00;;;;;;5057138;28;20168;-80
2021/03/22 12:24:05;;;;;;;12.40;3.10;;;9.50;68.30;;;;;;5057224;28;20183;-81
2021/03/22 12:26:38;;;;;;;13.97;2.70;;;9.60;68.80;;;;;;5039307;28;20187;-81
2021/03/22 12:29:11;;;;;;;8.10;3.17;;;9.70;68.60;;;;;;5039333;28;20213;-80
2021/03/22 12:31:48;;;;;;;12.07;2.70;;;9.40;68.80;;;;;;5040284;28;20591;-80
2021/03/22 12:34:23;;;;;;;8.43;2.53;;;9.70;69.10;;;;;;5057287;28;20168;-81
2021/03/22 12:36:57;;;;;;;13.20;2.97;;;9.70;68.30;;;;;;5039278;28;20204;-81
2021/03/22 12:39:33;;;;;;;10.17;2.90;;;9.60;68.00;;;;;;5040013;28;20196;-80
2021/03/22 12:42:14;;;;;;;12.17;3.00;;;9.40;69.10;;;;;;5056733;28;20179;-80
2021/03/22 12:44:48;;;;;;;14.37;3.07;;;9.20;70.60;;;;;;5057975;28;20207;-80
2021/03/22 12:47:24;;;;;;;11.73;3.67;;;9.20;70.70;;;;;;5058406;28;20166;-83
2021/03/22 12:49:52;;;;;;;11.20;3.63;;;8.90;71.40;;;;;;5057601;28;20220;-80
2021/03/22 12:52:18;;;;;;;9.50;2.77;;;8.70;72.10;;;;;;5057463;28;20172;-81
2021/03/22 12:54:47;;;;;;;8.17;2.70;;;8.80;72.40;;;;;;5039614;28;20551;-80
2021/03/22 12:57:18;;;;;;;5.60;2.50;;;8.60;71.90;;;;;;5057467;28;20194;-80
2021/03/22 12:59:52;;;;;;;7.40;2.60;;;8.60;72.50;;;;;;5057017;28;20676;-80
2021/03/22 13:02:24;;;;;;;5.67;1.90;;;8.70;71.60;;;;;;5039450;28;20180;-80
2021/03/22 13:04:52;;;;;;;8.27;2.63;;;8.70;71.50;;;;;;5039636;28;20233;-80
2021/03/22 13:07:21;;;;;;;7.20;2.50;;;8.80;72.00;;;;;;5056579;28;20180;-80
2021/03/22 13:09:54;;;;;;;13.67;2.90;;;8.80;70.80;;;;;;5056889;28;20195;-80
2021/03/22 13:12:28;;;;;;;11.77;2.77;;;8.70;71.00;;;;;;5057899;28;20516;-80
2021/03/22 13:15:00;;;;;;;7.80;2.27;;;8.80;71.50;;;;;;5056173;28;20712;-80
2021/03/22 13:17:34;;;;;;;4.93;2.33;;;8.80;71.80;;;;;;5056414;28;20180;-81
2021/03/22 13:20:12;;;;;;;12.17;2.60;;;8.80;72.10;;;;;;5056185;28;20196;-80
2021/03/22 13:22:44;;;;;;;12.40;2.77;;;8.50;71.70;;;;;;5055406;28;20164;-80
2021/03/22 13:25:16;;;;;;;11.17;3.20;;;8.50;72.50;;;;;;5056686;28;20181;-81
2021/03/22 13:27:54;;;;;;;6.90;2.60;;;8.40;72.60;;;;;;5056964;28;20683;-80
2021/03/22 13:30:30;;;;;;;13.73;2.83;;;8.40;72.70;;;;;;5056429;28;20163;-80
2021/03/22 13:33:03;;;;;;;10.03;3.23;;;8.20;73.30;;;;;;5055775;28;20172;-80
2021/03/22 13:35:35;;;;;;;9.53;2.93;;;8.20;73.50;;;;;;5038045;28;20261;-79
2021/03/22 13:38:04;;;;;;;10.20;2.43;;;8.20;73.40;;;;;;5055616;28;20257;-80
2021/03/22 13:40:38;;;;;;;12.63;3.30;;;8.30;73.90;;;;;;5055295;28;20253;-80